Cahone, CO (81320)

6:00 AM MST on December 26, 2014 (GMT -0700)
Cahone (2.5 Miles NNE) | Change Station
CLOSE
Current Station
Personal Weather Station
Location: Cahone, CO
Elevation: 6870 ft
Nearby Weather Stations

Elev 6870 ft 37.69 °N, 108.80 °W | Updated 1 second ago

Overcast
Overcast
12.9 °F
Feels Like 13 °F
N
1.0
Wind Variable Wind from ENE
Gusts 1.0 mph

Today
High -- | Low -- °F
--% Chance of Precip.
Yesterday
High -- | Low -- °F
Precip. -- in
7:28 AM 5:02 PM
Waxing Crescent, 25% visible
Pressure 29.77 in
Visibility 10.0 miles
Clouds Mostly Cloudy 1100 ft
Windchill 13 °F
Dew Point 8 °F
Humidity 80%
Rainfall 0.00 in
Snow Depth Not available.
UV 0 out of 12
Pollen .40 out of 12
Air Quality Not available.
Flu Activity Not available.
METAR KCEZ 261253Z AUTO 01003KT 10SM BKN011 M09/M10 A2971 RMK AO2 SNE44 SLP079 P0000 T10891100

More Conditions Fewer Conditions

Pressure 29.77 in
Visibility 10.0 miles
Clouds Mostly Cloudy 1100 ft
Windchill 13 °F
Dew Point 8 °F
Humidity 80%
Rainfall 0.00 in
Snow Depth Not available.
UV 0 out of 12
Pollen .40 out of 12
Air Quality Not available.
Flu Activity Not available.
METAR KCEZ 261253Z AUTO 01003KT 10SM BKN011 M09/M10 A2971 RMK AO2 SNE44 SLP079 P0000 T10891100

More Conditions Fewer Conditions

10-Day Weather Forecast

Almanac

Astronomy

Dec. 26, 2014 Rise Set
Actual Time
Civil Twilight
Nautical Twilight
Astronomical Twilight
Moon
Length of Visible Light
Length of Day
Tomorrow will be .
, % of the Moon is Illuminated

Today's Extremes

State Highs State Lows

Community

WunderPhotos

Upload Photos

1,780,589 photos uploaded!

WunderBlogs® & News

Nearby

Air Quality

  Air Quality AQ Index Pollutant
Not available.

Snow Depth

Station Depth Elevation

Earthquake Activity

City Distance Mag. Time & Date
Minimum magnitude displayed is 2.5.

Coastal Water Temperatures

Place Temperature

Nearby Weather Stations